Terminal Aerodrome Forecast
Issued by NWS Cleveland, OH

Home | Current Version | Previous Version | Graphics & Text | Print | Product List | Glossary On
Versions: 1 2 3 4 5 6 7 8 9 10 11 12 13 14 15 16 17 18 19 20 21 22 23 24 25 26 27 28
000
FTUS41 KCLE 291100 RRA
TAFCLE
TAF
KCLE 291141Z 2912/3018 28005KT P6SM BKN035 OVC060
     FM300100 26008KT P6SM VCSH BKN045
     FM300700 22006KT P6SM SCT030 BKN120
     FM301500 25008KT P6SM BKN030=

USA.gov is the U.S. government's official web portal to all federal, state and local government web resources and services.